sensor_id;sensor_type;location;lat;lon;timestamp;P1;durP1;ratioP1;P2;durP2;ratioP2
11422;SDS011;5768;51.476;7.210;2023-12-22T00:04:43;2.47;;;1.33;;
11422;SDS011;5768;51.476;7.210;2023-12-22T00:09:47;4.60;;;1.53;;
11422;SDS011;5768;51.476;7.210;2023-12-22T00:14:49;6.37;;;1.87;;
11422;SDS011;5768;51.476;7.210;2023-12-22T00:19:52;4.23;;;1.53;;
11422;SDS011;5768;51.476;7.210;2023-12-22T00:24:56;2.40;;;1.43;;
11422;SDS011;5768;51.476;7.210;2023-12-22T00:29:59;4.20;;;1.40;;
11422;SDS011;5768;51.476;7.210;2023-12-22T00:35:04;5.97;;;1.97;;
11422;SDS011;5768;51.476;7.210;2023-12-22T00:40:13;3.57;;;1.77;;
11422;SDS011;5768;51.476;7.210;2023-12-22T00:45:27;7.67;;;1.80;;
11422;SDS011;5768;51.476;7.210;2023-12-22T00:50:48;6.07;;;1.53;;
11422;SDS011;5768;51.476;7.210;2023-12-22T00:55:52;5.13;;;1.60;;
11422;SDS011;5768;51.476;7.210;2023-12-22T01:00:58;4.13;;;1.23;;
11422;SDS011;5768;51.476;7.210;2023-12-22T01:06:05;3.50;;;1.53;;
11422;SDS011;5768;51.476;7.210;2023-12-22T01:11:27;5.00;;;1.53;;
11422;SDS011;5768;51.476;7.210;2023-12-22T01:16:36;4.40;;;1.30;;
11422;SDS011;5768;51.476;7.210;2023-12-22T01:21:42;3.70;;;1.50;;
11422;SDS011;5768;51.476;7.210;2023-12-22T01:26:53;6.87;;;1.40;;
11422;SDS011;5768;51.476;7.210;2023-12-22T01:31:59;4.33;;;2.00;;
11422;SDS011;5768;51.476;7.210;2023-12-22T01:37:04;4.80;;;1.90;;
11422;SDS011;5768;51.476;7.210;2023-12-22T01:42:25;3.53;;;1.00;;
11422;SDS011;5768;51.476;7.210;2023-12-22T01:47:28;3.40;;;1.27;;
11422;SDS011;5768;51.476;7.210;2023-12-22T01:52:33;1.77;;;0.87;;
11422;SDS011;5768;51.476;7.210;2023-12-22T01:57:45;1.43;;;0.90;;
11422;SDS011;5768;51.476;7.210;2023-12-22T02:02:50;0.77;;;0.77;;
11422;SDS011;5768;51.476;7.210;2023-12-22T02:07:54;2.10;;;0.70;;
11422;SDS011;5768;51.476;7.210;2023-12-22T02:13:01;0.90;;;0.70;;
11422;SDS011;5768;51.476;7.210;2023-12-22T02:18:07;2.73;;;1.10;;
11422;SDS011;5768;51.476;7.210;2023-12-22T02:23:22;3.57;;;0.90;;
11422;SDS011;5768;51.476;7.210;2023-12-22T02:28:24;3.33;;;1.13;;
11422;SDS011;5768;51.476;7.210;2023-12-22T02:33:27;2.20;;;0.93;;
11422;SDS011;5768;51.476;7.210;2023-12-22T02:38:34;0.90;;;0.63;;
11422;SDS011;5768;51.476;7.210;2023-12-22T02:43:37;1.33;;;0.50;;
11422;SDS011;5768;51.476;7.210;2023-12-22T02:48:42;2.13;;;1.13;;
11422;SDS011;5768;51.476;7.210;2023-12-22T02:53:48;1.93;;;1.03;;
11422;SDS011;5768;51.476;7.210;2023-12-22T02:58:51;4.87;;;1.17;;
11422;SDS011;5768;51.476;7.210;2023-12-22T03:03:53;2.27;;;0.83;;
11422;SDS011;5768;51.476;7.210;2023-12-22T03:08:58;3.27;;;1.37;;
11422;SDS011;5768;51.476;7.210;2023-12-22T03:14:03;3.77;;;1.50;;
11422;SDS011;5768;51.476;7.210;2023-12-22T03:19:08;3.00;;;1.53;;
11422;SDS011;5768;51.476;7.210;2023-12-22T03:24:14;4.27;;;1.20;;
11422;SDS011;5768;51.476;7.210;2023-12-22T03:29:18;5.20;;;1.80;;
11422;SDS011;5768;51.476;7.210;2023-12-22T03:34:21;4.27;;;1.13;;
11422;SDS011;5768;51.476;7.210;2023-12-22T03:39:25;3.40;;;1.30;;
11422;SDS011;5768;51.476;7.210;2023-12-22T03:44:27;6.00;;;2.10;;
11422;SDS011;5768;51.476;7.210;2023-12-22T03:49:29;5.50;;;1.87;;
11422;SDS011;5768;51.476;7.210;2023-12-22T03:54:35;5.37;;;1.57;;
11422;SDS011;5768;51.476;7.210;2023-12-22T03:59:37;5.80;;;1.70;;
11422;SDS011;5768;51.476;7.210;2023-12-22T04:04:40;5.10;;;1.73;;
11422;SDS011;5768;51.476;7.210;2023-12-22T04:09:43;5.97;;;2.10;;
11422;SDS011;5768;51.476;7.210;2023-12-22T04:14:48;6.80;;;2.00;;
11422;SDS011;5768;51.476;7.210;2023-12-22T04:19:50;8.00;;;2.57;;
11422;SDS011;5768;51.476;7.210;2023-12-22T04:24:54;5.07;;;2.10;;
11422;SDS011;5768;51.476;7.210;2023-12-22T04:29:56;6.10;;;1.47;;
11422;SDS011;5768;51.476;7.210;2023-12-22T04:34:58;3.40;;;1.07;;
11422;SDS011;5768;51.476;7.210;2023-12-22T04:40:02;1.37;;;0.70;;
11422;SDS011;5768;51.476;7.210;2023-12-22T04:45:06;3.37;;;0.93;;
11422;SDS011;5768;51.476;7.210;2023-12-22T04:50:09;2.97;;;0.77;;
11422;SDS011;5768;51.476;7.210;2023-12-22T04:55:12;1.10;;;0.67;;
11422;SDS011;5768;51.476;7.210;2023-12-22T05:00:15;1.87;;;1.07;;
11422;SDS011;5768;51.476;7.210;2023-12-22T05:05:18;1.60;;;0.97;;
11422;SDS011;5768;51.476;7.210;2023-12-22T05:10:21;2.93;;;1.00;;
11422;SDS011;5768;51.476;7.210;2023-12-22T05:15:23;3.27;;;0.80;;
11422;SDS011;5768;51.476;7.210;2023-12-22T05:20:26;4.17;;;1.20;;
11422;SDS011;5768;51.476;7.210;2023-12-22T05:25:30;4.47;;;1.00;;
11422;SDS011;5768;51.476;7.210;2023-12-22T05:30:32;3.63;;;1.17;;
11422;SDS011;5768;51.476;7.210;2023-12-22T05:35:34;3.67;;;1.30;;
11422;SDS011;5768;51.476;7.210;2023-12-22T05:40:38;4.43;;;0.97;;
11422;SDS011;5768;51.476;7.210;2023-12-22T05:45:40;4.80;;;1.03;;
11422;SDS011;5768;51.476;7.210;2023-12-22T05:50:48;1.50;;;0.90;;
11422;SDS011;5768;51.476;7.210;2023-12-22T05:55:52;4.43;;;1.40;;
11422;SDS011;5768;51.476;7.210;2023-12-22T06:00:54;1.07;;;0.97;;
11422;SDS011;5768;51.476;7.210;2023-12-22T06:05:56;3.53;;;1.37;;
11422;SDS011;5768;51.476;7.210;2023-12-22T06:11:03;3.77;;;1.23;;
11422;SDS011;5768;51.476;7.210;2023-12-22T06:16:06;4.07;;;1.40;;
11422;SDS011;5768;51.476;7.210;2023-12-22T06:21:13;2.27;;;1.10;;
11422;SDS011;5768;51.476;7.210;2023-12-22T06:26:17;5.40;;;1.43;;
11422;SDS011;5768;51.476;7.210;2023-12-22T06:31:20;4.20;;;1.47;;
11422;SDS011;5768;51.476;7.210;2023-12-22T06:36:25;6.60;;;1.90;;
11422;SDS011;5768;51.476;7.210;2023-12-22T06:41:29;5.43;;;2.27;;
11422;SDS011;5768;51.476;7.210;2023-12-22T06:46:33;7.63;;;2.07;;
11422;SDS011;5768;51.476;7.210;2023-12-22T06:51:40;5.30;;;1.57;;
11422;SDS011;5768;51.476;7.210;2023-12-22T06:56:50;5.17;;;1.70;;
11422;SDS011;5768;51.476;7.210;2023-12-22T07:01:53;6.73;;;2.00;;
11422;SDS011;5768;51.476;7.210;2023-12-22T07:06:56;7.57;;;2.37;;
11422;SDS011;5768;51.476;7.210;2023-12-22T07:12:02;8.80;;;2.20;;
11422;SDS011;5768;51.476;7.210;2023-12-22T07:17:06;9.23;;;2.80;;
11422;SDS011;5768;51.476;7.210;2023-12-22T07:22:12;9.73;;;3.60;;
11422;SDS011;5768;51.476;7.210;2023-12-22T07:28:03;11.27;;;2.60;;
11422;SDS011;5768;51.476;7.210;2023-12-22T07:33:40;9.80;;;3.30;;
11422;SDS011;5768;51.476;7.210;2023-12-22T07:38:43;10.07;;;2.70;;
11422;SDS011;5768;51.476;7.210;2023-12-22T07:43:47;7.97;;;2.60;;
11422;SDS011;5768;51.476;7.210;2023-12-22T07:48:49;11.10;;;2.73;;
11422;SDS011;5768;51.476;7.210;2023-12-22T07:53:51;5.33;;;1.70;;
11422;SDS011;5768;51.476;7.210;2023-12-22T07:58:55;3.27;;;1.43;;
11422;SDS011;5768;51.476;7.210;2023-12-22T08:04:05;5.07;;;1.90;;
11422;SDS011;5768;51.476;7.210;2023-12-22T08:09:07;5.50;;;1.23;;
11422;SDS011;5768;51.476;7.210;2023-12-22T08:14:11;8.77;;;2.47;;
11422;SDS011;5768;51.476;7.210;2023-12-22T08:19:21;3.87;;;1.63;;
11422;SDS011;5768;51.476;7.210;2023-12-22T08:24:51;5.20;;;1.53;;
11422;SDS011;5768;51.476;7.210;2023-12-22T08:29:55;5.37;;;1.80;;
11422;SDS011;5768;51.476;7.210;2023-12-22T08:34:57;8.37;;;2.70;;
11422;SDS011;5768;51.476;7.210;2023-12-22T08:40:05;8.63;;;2.70;;
11422;SDS011;5768;51.476;7.210;2023-12-22T08:45:18;15.27;;;4.13;;
11422;SDS011;5768;51.476;7.210;2023-12-22T08:50:24;7.27;;;2.80;;
11422;SDS011;5768;51.476;7.210;2023-12-22T08:55:27;12.17;;;3.30;;
11422;SDS011;5768;51.476;7.210;2023-12-22T09:00:32;12.83;;;3.80;;
11422;SDS011;5768;51.476;7.210;2023-12-22T09:05:43;15.33;;;3.63;;
11422;SDS011;5768;51.476;7.210;2023-12-22T09:10:55;10.13;;;3.67;;
11422;SDS011;5768;51.476;7.210;2023-12-22T09:16:02;15.53;;;3.63;;
11422;SDS011;5768;51.476;7.210;2023-12-22T09:21:07;7.93;;;2.70;;
11422;SDS011;5768;51.476;7.210;2023-12-22T09:26:09;8.57;;;2.50;;
11422;SDS011;5768;51.476;7.210;2023-12-22T09:31:13;6.43;;;2.30;;
11422;SDS011;5768;51.476;7.210;2023-12-22T09:36:15;7.40;;;2.03;;
11422;SDS011;5768;51.476;7.210;2023-12-22T09:41:18;7.40;;;1.90;;
11422;SDS011;5768;51.476;7.210;2023-12-22T09:46:21;6.87;;;2.40;;
11422;SDS011;5768;51.476;7.210;2023-12-22T09:51:26;8.40;;;2.00;;
11422;SDS011;5768;51.476;7.210;2023-12-22T09:56:31;7.47;;;1.97;;
11422;SDS011;5768;51.476;7.210;2023-12-22T10:01:38;8.40;;;2.00;;
11422;SDS011;5768;51.476;7.210;2023-12-22T10:06:44;5.60;;;1.83;;
11422;SDS011;5768;51.476;7.210;2023-12-22T10:11:49;7.43;;;2.27;;
11422;SDS011;5768;51.476;7.210;2023-12-22T10:16:55;8.27;;;2.20;;
11422;SDS011;5768;51.476;7.210;2023-12-22T10:22:01;7.87;;;2.47;;
11422;SDS011;5768;51.476;7.210;2023-12-22T10:27:04;10.60;;;3.17;;
11422;SDS011;5768;51.476;7.210;2023-12-22T10:32:08;8.93;;;3.43;;
11422;SDS011;5768;51.476;7.210;2023-12-22T10:37:10;7.00;;;3.30;;
11422;SDS011;5768;51.476;7.210;2023-12-22T10:42:13;11.43;;;3.50;;
11422;SDS011;5768;51.476;7.210;2023-12-22T10:47:18;8.13;;;3.57;;
11422;SDS011;5768;51.476;7.210;2023-12-22T10:52:21;7.07;;;3.57;;
11422;SDS011;5768;51.476;7.210;2023-12-22T10:57:25;9.63;;;2.70;;
11422;SDS011;5768;51.476;7.210;2023-12-22T11:02:30;7.23;;;2.63;;
11422;SDS011;5768;51.476;7.210;2023-12-22T11:07:40;4.37;;;1.60;;
11422;SDS011;5768;51.476;7.210;2023-12-22T11:12:49;3.40;;;1.50;;
11422;SDS011;5768;51.476;7.210;2023-12-22T11:17:55;5.87;;;1.67;;
11422;SDS011;5768;51.476;7.210;2023-12-22T11:23:00;3.37;;;1.47;;
11422;SDS011;5768;51.476;7.210;2023-12-22T11:28:06;1.67;;;1.03;;
11422;SDS011;5768;51.476;7.210;2023-12-22T11:33:12;2.10;;;1.03;;
11422;SDS011;5768;51.476;7.210;2023-12-22T11:38:15;1.70;;;0.50;;
11422;SDS011;5768;51.476;7.210;2023-12-22T11:43:19;3.40;;;0.63;;
11422;SDS011;5768;51.476;7.210;2023-12-22T11:48:26;1.67;;;0.90;;
11422;SDS011;5768;51.476;7.210;2023-12-22T11:53:30;1.67;;;1.30;;
11422;SDS011;5768;51.476;7.210;2023-12-22T11:58:34;3.20;;;1.60;;
11422;SDS011;5768;51.476;7.210;2023-12-22T12:03:48;2.57;;;1.30;;
11422;SDS011;5768;51.476;7.210;2023-12-22T12:08:52;1.40;;;1.30;;
11422;SDS011;5768;51.476;7.210;2023-12-22T12:13:55;4.20;;;2.40;;
11422;SDS011;5768;51.476;7.210;2023-12-22T12:19:15;3.23;;;2.30;;
11422;SDS011;5768;51.476;7.210;2023-12-22T12:24:22;6.37;;;2.60;;
11422;SDS011;5768;51.476;7.210;2023-12-22T12:29:26;4.57;;;2.67;;
11422;SDS011;5768;51.476;7.210;2023-12-22T12:34:30;4.77;;;2.07;;
11422;SDS011;5768;51.476;7.210;2023-12-22T12:39:34;4.50;;;2.33;;
11422;SDS011;5768;51.476;7.210;2023-12-22T12:44:43;3.10;;;2.00;;
11422;SDS011;5768;51.476;7.210;2023-12-22T12:49:57;3.63;;;1.90;;
11422;SDS011;5768;51.476;7.210;2023-12-22T12:55:00;2.57;;;1.50;;
11422;SDS011;5768;51.476;7.210;2023-12-22T13:00:04;2.47;;;1.60;;
11422;SDS011;5768;51.476;7.210;2023-12-22T13:05:21;2.70;;;1.40;;
11422;SDS011;5768;51.476;7.210;2023-12-22T13:10:26;1.77;;;1.10;;
11422;SDS011;5768;51.476;7.210;2023-12-22T13:15:29;2.00;;;0.97;;
11422;SDS011;5768;51.476;7.210;2023-12-22T13:20:33;3.27;;;1.00;;
11422;SDS011;5768;51.476;7.210;2023-12-22T13:25:39;4.37;;;1.50;;
11422;SDS011;5768;51.476;7.210;2023-12-22T13:30:45;2.63;;;1.20;;
11422;SDS011;5768;51.476;7.210;2023-12-22T13:35:50;2.40;;;1.00;;
11422;SDS011;5768;51.476;7.210;2023-12-22T13:40:53;3.60;;;1.20;;
11422;SDS011;5768;51.476;7.210;2023-12-22T13:45:55;3.40;;;1.07;;
11422;SDS011;5768;51.476;7.210;2023-12-22T13:51:03;2.40;;;1.20;;
11422;SDS011;5768;51.476;7.210;2023-12-22T13:56:06;3.70;;;1.50;;
11422;SDS011;5768;51.476;7.210;2023-12-22T14:01:12;1.83;;;0.93;;
11422;SDS011;5768;51.476;7.210;2023-12-22T14:06:25;3.00;;;1.70;;
11422;SDS011;5768;51.476;7.210;2023-12-22T14:11:29;2.47;;;0.90;;
11422;SDS011;5768;51.476;7.210;2023-12-22T14:16:32;4.70;;;1.17;;
11422;SDS011;5768;51.476;7.210;2023-12-22T14:21:35;2.17;;;1.00;;
11422;SDS011;5768;51.476;7.210;2023-12-22T14:26:51;4.17;;;1.50;;
11422;SDS011;5768;51.476;7.210;2023-12-22T14:31:54;1.77;;;1.13;;
11422;SDS011;5768;51.476;7.210;2023-12-22T14:36:58;2.03;;;1.00;;
11422;SDS011;5768;51.476;7.210;2023-12-22T14:42:02;5.33;;;1.30;;
11422;SDS011;5768;51.476;7.210;2023-12-22T14:47:05;5.83;;;1.50;;
11422;SDS011;5768;51.476;7.210;2023-12-22T14:52:09;3.40;;;1.53;;
11422;SDS011;5768;51.476;7.210;2023-12-22T14:57:12;1.57;;;1.10;;
11422;SDS011;5768;51.476;7.210;2023-12-22T15:02:18;3.77;;;1.20;;
11422;SDS011;5768;51.476;7.210;2023-12-22T15:07:22;3.43;;;1.23;;
11422;SDS011;5768;51.476;7.210;2023-12-22T15:12:24;3.27;;;1.30;;
11422;SDS011;5768;51.476;7.210;2023-12-22T15:17:29;8.40;;;1.87;;
11422;SDS011;5768;51.476;7.210;2023-12-22T15:22:33;2.13;;;1.30;;
11422;SDS011;5768;51.476;7.210;2023-12-22T15:27:35;4.97;;;1.60;;
11422;SDS011;5768;51.476;7.210;2023-12-22T15:32:39;1.97;;;1.13;;
11422;SDS011;5768;51.476;7.210;2023-12-22T15:37:43;5.57;;;1.70;;
11422;SDS011;5768;51.476;7.210;2023-12-22T15:42:45;4.17;;;1.20;;
11422;SDS011;5768;51.476;7.210;2023-12-22T15:47:48;6.47;;;1.80;;
11422;SDS011;5768;51.476;7.210;2023-12-22T15:52:51;3.80;;;1.50;;
11422;SDS011;5768;51.476;7.210;2023-12-22T15:57:53;4.03;;;1.40;;
11422;SDS011;5768;51.476;7.210;2023-12-22T16:02:56;4.23;;;1.40;;
11422;SDS011;5768;51.476;7.210;2023-12-22T16:08:01;4.90;;;1.43;;
11422;SDS011;5768;51.476;7.210;2023-12-22T16:13:09;3.83;;;1.70;;
11422;SDS011;5768;51.476;7.210;2023-12-22T16:18:13;3.70;;;1.80;;
11422;SDS011;5768;51.476;7.210;2023-12-22T16:23:16;5.40;;;1.77;;
11422;SDS011;5768;51.476;7.210;2023-12-22T16:28:22;4.00;;;1.60;;
11422;SDS011;5768;51.476;7.210;2023-12-22T16:33:25;4.10;;;1.70;;
11422;SDS011;5768;51.476;7.210;2023-12-22T16:38:28;2.00;;;1.13;;
11422;SDS011;5768;51.476;7.210;2023-12-22T16:43:31;1.90;;;1.20;;
11422;SDS011;5768;51.476;7.210;2023-12-22T16:48:34;4.53;;;1.47;;
11422;SDS011;5768;51.476;7.210;2023-12-22T16:53:38;2.13;;;1.03;;
11422;SDS011;5768;51.476;7.210;2023-12-22T16:58:40;4.77;;;1.63;;
11422;SDS011;5768;51.476;7.210;2023-12-22T17:03:42;7.20;;;2.20;;
11422;SDS011;5768;51.476;7.210;2023-12-22T17:08:46;3.37;;;1.57;;
11422;SDS011;5768;51.476;7.210;2023-12-22T17:13:51;4.23;;;1.67;;
11422;SDS011;5768;51.476;7.210;2023-12-22T17:18:53;4.20;;;1.57;;
11422;SDS011;5768;51.476;7.210;2023-12-22T17:23:57;3.00;;;1.27;;
11422;SDS011;5768;51.476;7.210;2023-12-22T17:29:00;5.13;;;1.67;;
11422;SDS011;5768;51.476;7.210;2023-12-22T17:34:03;3.50;;;1.63;;
11422;SDS011;5768;51.476;7.210;2023-12-22T17:39:09;2.90;;;1.30;;
11422;SDS011;5768;51.476;7.210;2023-12-22T17:44:11;4.40;;;1.73;;
11422;SDS011;5768;51.476;7.210;2023-12-22T17:49:13;4.10;;;1.43;;
11422;SDS011;5768;51.476;7.210;2023-12-22T17:54:17;5.00;;;1.87;;
11422;SDS011;5768;51.476;7.210;2023-12-22T17:59:20;6.90;;;1.77;;
11422;SDS011;5768;51.476;7.210;2023-12-22T18:04:22;3.57;;;1.50;;
11422;SDS011;5768;51.476;7.210;2023-12-22T18:09:26;4.73;;;0.73;;
11422;SDS011;5768;51.476;7.210;2023-12-22T18:14:28;2.30;;;1.03;;
11422;SDS011;5768;51.476;7.210;2023-12-22T18:19:31;1.00;;;0.70;;
11422;SDS011;5768;51.476;7.210;2023-12-22T18:24:34;1.03;;;0.83;;
11422;SDS011;5768;51.476;7.210;2023-12-22T18:29:36;1.90;;;0.60;;
11422;SDS011;5768;51.476;7.210;2023-12-22T18:34:39;2.70;;;0.73;;
11422;SDS011;5768;51.476;7.210;2023-12-22T18:39:45;0.90;;;0.60;;
11422;SDS011;5768;51.476;7.210;2023-12-22T18:45:04;0.83;;;0.70;;
11422;SDS011;5768;51.476;7.210;2023-12-22T18:50:07;1.93;;;0.80;;
11422;SDS011;5768;51.476;7.210;2023-12-22T18:55:11;0.47;;;0.43;;
11422;SDS011;5768;51.476;7.210;2023-12-22T19:00:14;2.80;;;1.10;;
11422;SDS011;5768;51.476;7.210;2023-12-22T19:05:17;1.83;;;1.20;;
11422;SDS011;5768;51.476;7.210;2023-12-22T19:10:20;2.53;;;0.87;;
11422;SDS011;5768;51.476;7.210;2023-12-22T19:15:26;1.30;;;0.87;;
11422;SDS011;5768;51.476;7.210;2023-12-22T19:20:28;1.73;;;1.17;;
11422;SDS011;5768;51.476;7.210;2023-12-22T19:25:33;1.30;;;1.00;;
11422;SDS011;5768;51.476;7.210;2023-12-22T19:30:35;1.20;;;0.70;;
11422;SDS011;5768;51.476;7.210;2023-12-22T19:35:38;3.73;;;0.70;;
11422;SDS011;5768;51.476;7.210;2023-12-22T19:40:42;3.80;;;1.10;;
11422;SDS011;5768;51.476;7.210;2023-12-22T19:45:48;2.93;;;0.97;;
11422;SDS011;5768;51.476;7.210;2023-12-22T19:50:51;3.60;;;1.27;;
11422;SDS011;5768;51.476;7.210;2023-12-22T19:55:54;1.23;;;0.70;;
11422;SDS011;5768;51.476;7.210;2023-12-22T20:00:56;1.43;;;0.87;;
11422;SDS011;5768;51.476;7.210;2023-12-22T20:06:04;3.97;;;1.10;;
11422;SDS011;5768;51.476;7.210;2023-12-22T20:11:08;2.93;;;1.20;;
11422;SDS011;5768;51.476;7.210;2023-12-22T20:16:11;2.63;;;1.13;;
11422;SDS011;5768;51.476;7.210;2023-12-22T20:21:13;1.70;;;0.80;;
11422;SDS011;5768;51.476;7.210;2023-12-22T20:26:17;1.90;;;0.87;;
11422;SDS011;5768;51.476;7.210;2023-12-22T20:31:19;3.10;;;1.07;;
11422;SDS011;5768;51.476;7.210;2023-12-22T20:36:22;3.77;;;0.90;;
11422;SDS011;5768;51.476;7.210;2023-12-22T20:41:26;4.63;;;0.97;;
11422;SDS011;5768;51.476;7.210;2023-12-22T20:46:31;1.87;;;0.83;;
11422;SDS011;5768;51.476;7.210;2023-12-22T20:51:39;2.93;;;1.13;;
11422;SDS011;5768;51.476;7.210;2023-12-22T20:56:43;3.90;;;1.30;;
11422;SDS011;5768;51.476;7.210;2023-12-22T21:01:47;4.80;;;1.07;;
11422;SDS011;5768;51.476;7.210;2023-12-22T21:06:50;4.57;;;1.30;;
11422;SDS011;5768;51.476;7.210;2023-12-22T21:11:53;1.50;;;0.77;;
11422;SDS011;5768;51.476;7.210;2023-12-22T21:16:59;1.77;;;1.10;;
11422;SDS011;5768;51.476;7.210;2023-12-22T21:22:05;3.90;;;1.27;;
11422;SDS011;5768;51.476;7.210;2023-12-22T21:27:15;1.93;;;0.97;;
11422;SDS011;5768;51.476;7.210;2023-12-22T21:32:32;3.83;;;1.40;;
11422;SDS011;5768;51.476;7.210;2023-12-22T21:37:36;5.17;;;1.40;;
11422;SDS011;5768;51.476;7.210;2023-12-22T21:42:41;3.60;;;1.30;;
11422;SDS011;5768;51.476;7.210;2023-12-22T21:47:46;5.63;;;1.60;;
11422;SDS011;5768;51.476;7.210;2023-12-22T21:52:49;2.30;;;1.20;;
11422;SDS011;5768;51.476;7.210;2023-12-22T21:57:54;2.63;;;1.23;;
11422;SDS011;5768;51.476;7.210;2023-12-22T22:02:59;6.07;;;1.50;;
11422;SDS011;5768;51.476;7.210;2023-12-22T22:08:02;4.73;;;1.23;;
11422;SDS011;5768;51.476;7.210;2023-12-22T22:13:06;4.40;;;1.63;;
11422;SDS011;5768;51.476;7.210;2023-12-22T22:18:08;4.27;;;1.80;;
11422;SDS011;5768;51.476;7.210;2023-12-22T22:23:11;3.87;;;1.30;;
11422;SDS011;5768;51.476;7.210;2023-12-22T22:28:14;3.10;;;1.37;;
11422;SDS011;5768;51.476;7.210;2023-12-22T22:33:17;2.40;;;0.97;;
11422;SDS011;5768;51.476;7.210;2023-12-22T22:38:19;2.00;;;1.23;;
11422;SDS011;5768;51.476;7.210;2023-12-22T22:43:22;3.03;;;1.30;;
11422;SDS011;5768;51.476;7.210;2023-12-22T22:48:25;2.67;;;1.23;;
11422;SDS011;5768;51.476;7.210;2023-12-22T22:53:27;5.00;;;1.40;;
11422;SDS011;5768;51.476;7.210;2023-12-22T22:58:31;3.23;;;1.00;;
11422;SDS011;5768;51.476;7.210;2023-12-22T23:03:33;1.70;;;1.00;;
11422;SDS011;5768;51.476;7.210;2023-12-22T23:08:35;3.17;;;1.10;;
11422;SDS011;5768;51.476;7.210;2023-12-22T23:13:39;2.93;;;0.83;;
11422;SDS011;5768;51.476;7.210;2023-12-22T23:18:41;1.53;;;0.77;;
11422;SDS011;5768;51.476;7.210;2023-12-22T23:23:43;3.53;;;1.30;;
11422;SDS011;5768;51.476;7.210;2023-12-22T23:28:47;2.83;;;1.27;;
11422;SDS011;5768;51.476;7.210;2023-12-22T23:33:50;4.53;;;1.20;;
11422;SDS011;5768;51.476;7.210;2023-12-22T23:38:53;3.73;;;1.30;;
11422;SDS011;5768;51.476;7.210;2023-12-22T23:43:57;4.17;;;1.60;;
11422;SDS011;5768;51.476;7.210;2023-12-22T23:48:59;5.70;;;1.70;;
11422;SDS011;5768;51.476;7.210;2023-12-22T23:54:01;5.00;;;1.50;;
11422;SDS011;5768;51.476;7.210;2023-12-22T23:59:05;2.90;;;1.07;;
